Miller Park, Virginia
Current Conditions -  °F | °C
As of 12:54 PM on Friday 19 Dec 2014 (Local Time) from KLYH Reporting Station
Clear Clear  
Wind Chill: 44°   Ceiling: Unl
Heat Index: 44°   Visibility: 10mi
Dew Point: 23°   Wind: 0mph
Humidity: 43%   Direction: NA
Pressure: 30.12"   Gusts: NA
Location:  37.3527°N, 79.1576°W
Report Text: KLYH 191754Z 00000KT 10SM CLR 07/M05 A3012 RMK AO2 SLP203 T00671050 10072 21044 58020
Loading
Personal Weather Stations






























Interactive Weather Map New forecast layout! Learn more

10-Day Weather Forecast

Advertisements
Track Severe Weather on mobile